Time;durP1;ratioP1;P1;durP2;ratioP2;P2;SDS_P1;SDS_P2;PMS_P1;PMS_P2;Temp;Humidity;BMP_temperature;BMP_pressure;BME280_temperature;BME280_humidity;BME280_pressure;Samples;Min_cycle;Max_cycle;Signal;HPM_P1;HPM_P2
2023/01/27 00:00:56;;;;;;;13.07;5.73;;;4.90;99.90;;;;;;4991506;28;20231;-69
2023/01/27 00:03:23;;;;;;;14.23;6.40;;;4.90;99.90;;;;;;4992070;28;20239;-69
2023/01/27 00:05:50;;;;;;;19.07;6.27;;;4.90;99.90;;;;;;4975216;28;20636;-70
2023/01/27 00:08:17;;;;;;;20.40;7.27;;;4.90;99.90;;;;;;4989870;28;20219;-69
2023/01/27 00:10:44;;;;;;;16.33;6.50;;;4.90;99.90;;;;;;4993687;28;20229;-66
2023/01/27 00:13:30;;;;;;;20.23;6.70;;;4.90;99.90;;;;;;4992872;28;20288;-69
2023/01/27 00:15:57;;;;;;;16.43;6.43;;;4.90;99.90;;;;;;4991625;28;20234;-69
2023/01/27 00:18:24;;;;;;;11.03;6.23;;;4.90;99.90;;;;;;4988055;28;20225;-68
2023/01/27 00:26:23;;;;;;;16.30;7.00;;;4.90;99.90;;;;;;4973939;28;20211;-69
2023/01/27 00:28:50;;;;;;;17.70;6.63;;;4.90;99.90;;;;;;4993464;28;20203;-69
2023/01/27 00:34:09;;;;;;;21.17;8.70;;;4.90;99.90;;;;;;4990988;28;20202;-67
2023/01/27 00:36:39;;;;;;;13.53;6.77;;;4.90;99.90;;;;;;4996468;28;20224;-67
2023/01/27 00:39:08;;;;;;;16.47;7.70;;;4.90;99.90;;;;;;4974774;28;20208;-69
2023/01/27 00:41:35;;;;;;;23.37;7.23;;;4.90;99.90;;;;;;4993320;28;20264;-69
2023/01/27 00:44:04;;;;;;;19.93;7.40;;;4.90;99.90;;;;;;4992077;28;20300;-67
2023/01/27 00:46:31;;;;;;;18.07;7.73;;;4.90;99.90;;;;;;4993391;28;20209;-69
2023/01/27 00:48:58;;;;;;;16.27;7.33;;;4.90;99.90;;;;;;4993211;28;20525;-69
2023/01/27 00:51:25;;;;;;;19.67;8.13;;;4.90;99.90;;;;;;4990459;28;20247;-69
2023/01/27 00:53:51;;;;;;;19.70;8.13;;;4.90;99.90;;;;;;4991400;28;20207;-69
2023/01/27 00:56:18;;;;;;;19.60;8.43;;;4.90;99.90;;;;;;4996864;28;20217;-69
2023/01/27 00:58:45;;;;;;;19.13;8.30;;;4.90;99.90;;;;;;4991087;28;20217;-66
2023/01/27 01:01:14;;;;;;;19.77;8.67;;;4.90;99.90;;;;;;4975112;28;20234;-69
2023/01/27 01:03:42;;;;;;;18.80;9.13;;;4.90;99.90;;;;;;4988598;28;20313;-69
2023/01/27 01:06:10;;;;;;;16.23;9.20;;;4.80;99.90;;;;;;4990767;28;20300;-69
2023/01/27 01:08:37;;;;;;;17.83;8.77;;;4.80;99.90;;;;;;4990344;28;20677;-67
2023/01/27 01:11:06;;;;;;;17.50;8.73;;;4.80;99.90;;;;;;4991813;28;20231;-69
2023/01/27 01:13:33;;;;;;;21.20;9.30;;;4.80;99.90;;;;;;4992456;28;20244;-69
2023/01/27 01:16:06;;;;;;;20.77;9.13;;;4.70;99.90;;;;;;4994941;28;20282;-67
2023/01/27 01:18:33;;;;;;;19.30;10.13;;;4.80;99.90;;;;;;4974574;28;20220;-69
2023/01/27 01:21:00;;;;;;;19.40;10.10;;;4.70;99.90;;;;;;4988163;28;20215;-69
2023/01/27 01:23:27;;;;;;;28.00;12.20;;;4.70;99.90;;;;;;4991913;28;20229;-69
2023/01/27 01:25:55;;;;;;;22.97;10.93;;;4.70;99.90;;;;;;4990323;28;20209;-68
2023/01/27 01:28:23;;;;;;;21.63;11.30;;;4.60;99.90;;;;;;4988653;28;20298;-69
2023/01/27 01:30:50;;;;;;;29.03;13.20;;;4.60;99.90;;;;;;4989355;28;20721;-69
2023/01/27 01:33:17;;;;;;;26.13;13.03;;;4.60;99.90;;;;;;4992643;28;20278;-67
2023/01/27 01:35:44;;;;;;;24.50;12.47;;;4.60;99.90;;;;;;4991785;28;20306;-67
2023/01/27 01:38:11;;;;;;;28.63;13.87;;;4.70;99.90;;;;;;4994915;28;20208;-67
2023/01/27 01:40:42;;;;;;;26.63;13.57;;;4.70;99.90;;;;;;4987696;28;20315;-69
2023/01/27 01:43:16;;;;;;;36.90;14.63;;;4.70;99.90;;;;;;4993724;28;20313;-69
2023/01/27 01:46:00;;;;;;;31.17;13.87;;;4.70;99.90;;;;;;4991471;28;20203;-69
2023/01/27 01:48:35;;;;;;;28.37;13.87;;;4.70;99.90;;;;;;4982315;28;20268;-69
2023/01/27 01:51:21;;;;;;;34.00;14.50;;;4.70;99.90;;;;;;4988833;28;20700;-71
2023/01/27 01:54:03;;;;;;;30.73;14.77;;;4.70;99.90;;;;;;4989602;28;20711;-68
2023/01/27 01:56:35;;;;;;;34.37;15.63;;;4.70;99.90;;;;;;4988835;28;20301;-67
2023/01/27 01:59:09;;;;;;;30.30;15.07;;;4.70;99.90;;;;;;4989681;28;20298;-69
2023/01/27 02:01:36;;;;;;;34.10;14.80;;;4.70;99.90;;;;;;4989591;28;20231;-68
2023/01/27 02:04:06;;;;;;;32.70;15.60;;;4.70;99.90;;;;;;4987140;28;20691;-69
2023/01/27 02:06:46;;;;;;;33.40;15.13;;;4.70;99.90;;;;;;4992748;28;20549;-67
2023/01/27 02:09:13;;;;;;;30.53;14.97;;;4.70;99.90;;;;;;4991290;28;20205;-67
2023/01/27 02:11:40;;;;;;;30.60;15.27;;;4.70;99.90;;;;;;4988440;28;20234;-68
2023/01/27 02:14:07;;;;;;;33.53;14.97;;;4.70;99.90;;;;;;4973934;28;20219;-69
2023/01/27 02:16:34;;;;;;;31.10;14.80;;;4.70;99.90;;;;;;4987232;28;20215;-67
2023/01/27 02:19:01;;;;;;;32.47;16.47;;;4.60;99.90;;;;;;4988800;28;20205;-67
2023/01/27 02:21:29;;;;;;;34.60;16.90;;;4.60;99.90;;;;;;4991296;28;20294;-69
2023/01/27 02:24:09;;;;;;;36.43;17.47;;;4.60;99.90;;;;;;4989039;28;20663;-69
2023/01/27 02:26:42;;;;;;;35.27;18.17;;;4.60;99.90;;;;;;4986990;28;20219;-69
2023/01/27 02:29:14;;;;;;;40.37;20.03;;;4.60;99.90;;;;;;4987197;28;20202;-69
2023/01/27 02:31:41;;;;;;;37.50;18.83;;;4.60;99.90;;;;;;4988123;28;20255;-69
2023/01/27 02:34:11;;;;;;;42.40;21.80;;;4.60;99.90;;;;;;4983995;28;20620;-69
2023/01/27 02:36:42;;;;;;;42.37;19.57;;;4.60;99.90;;;;;;4989020;28;20882;-69
2023/01/27 02:39:11;;;;;;;42.00;21.10;;;4.60;99.90;;;;;;4984272;28;20286;-69
2023/01/27 02:41:44;;;;;;;37.70;18.63;;;4.60;99.90;;;;;;4970830;28;20574;-69
2023/01/27 02:44:11;;;;;;;38.80;19.33;;;4.60;99.90;;;;;;4973108;28;20558;-69
2023/01/27 02:46:38;;;;;;;34.80;18.00;;;4.60;99.90;;;;;;4990013;28;20286;-69
2023/01/27 02:49:04;;;;;;;37.03;18.27;;;4.60;99.90;;;;;;4987290;28;20300;-70
2023/01/27 02:51:31;;;;;;;40.43;19.23;;;4.60;99.90;;;;;;4989231;28;20227;-68
2023/01/27 02:53:58;;;;;;;39.53;18.37;;;4.60;99.90;;;;;;4987165;28;20211;-68
2023/01/27 02:56:25;;;;;;;37.47;17.63;;;4.60;99.90;;;;;;4985672;28;20629;-67
2023/01/27 02:58:52;;;;;;;39.97;19.47;;;4.70;99.90;;;;;;4988657;28;20211;-67
2023/01/27 03:01:18;;;;;;;38.17;18.27;;;4.60;99.90;;;;;;4973290;28;20306;-69
2023/01/27 03:03:50;;;;;;;33.10;16.53;;;4.70;99.90;;;;;;4990147;28;20232;-69
2023/01/27 03:06:17;;;;;;;35.40;17.83;;;4.70;99.90;;;;;;4990657;28;20727;-69
2023/01/27 03:08:44;;;;;;;30.97;15.83;;;4.70;99.90;;;;;;4990134;28;20216;-68
2023/01/27 03:11:11;;;;;;;29.33;16.10;;;4.70;99.90;;;;;;4988466;28;20315;-69
2023/01/27 03:13:38;;;;;;;32.23;17.03;;;4.70;99.90;;;;;;4988411;28;20211;-69
2023/01/27 03:18:52;;;;;;;29.33;15.30;;;4.80;99.90;;;;;;4987272;28;20203;-69
2023/01/27 03:21:19;;;;;;;28.43;14.83;;;4.80;99.90;;;;;;4987332;28;20223;-69
2023/01/27 03:23:47;;;;;;;29.00;15.37;;;4.80;99.90;;;;;;4988909;28;20203;-69
2023/01/27 03:26:15;;;;;;;26.83;15.03;;;4.80;99.90;;;;;;4990761;28;20211;-68
2023/01/27 03:28:42;;;;;;;26.87;14.13;;;4.80;99.90;;;;;;4990273;28;20300;-69
2023/01/27 03:31:18;;;;;;;30.87;15.33;;;4.80;99.90;;;;;;4992689;28;20227;-69
2023/01/27 03:33:46;;;;;;;27.33;14.73;;;4.70;99.90;;;;;;4989729;28;20208;-69
2023/01/27 03:47:16;;;;;;;23.57;12.43;;;4.80;99.90;;;;;;4989214;28;20323;-69
2023/01/27 03:49:42;;;;;;;22.57;11.83;;;4.80;99.90;;;;;;4994540;28;20322;-69
2023/01/27 03:52:09;;;;;;;23.70;11.80;;;4.80;99.90;;;;;;4990142;28;20266;-69
2023/01/27 03:54:36;;;;;;;20.83;11.70;;;4.80;99.90;;;;;;4994048;28;20219;-69
2023/01/27 03:57:04;;;;;;;19.87;11.47;;;4.80;99.90;;;;;;4974362;28;20209;-69
2023/01/27 03:59:32;;;;;;;21.67;11.23;;;4.80;99.90;;;;;;4998907;28;20213;-70
2023/01/27 04:07:34;;;;;;;18.57;10.80;;;4.90;99.90;;;;;;4992487;28;20249;-69
2023/01/27 04:10:02;;;;;;;20.97;11.10;;;4.90;99.90;;;;;;4990096;28;20554;-69
2023/01/27 04:12:29;;;;;;;17.33;10.33;;;4.90;99.90;;;;;;4991071;28;20235;-67
2023/01/27 04:14:56;;;;;;;16.30;10.33;;;4.90;99.90;;;;;;4990485;28;21160;-70
2023/01/27 04:17:23;;;;;;;19.53;10.23;;;4.90;99.90;;;;;;4991966;28;20236;-69
2023/01/27 04:19:50;;;;;;;17.97;9.87;;;4.90;99.90;;;;;;4981108;28;20287;-69
2023/01/27 04:22:17;;;;;;;14.00;8.27;;;4.90;99.90;;;;;;4992942;28;20207;-69
2023/01/27 04:24:43;;;;;;;14.37;9.00;;;5.00;99.90;;;;;;4993014;28;20195;-69
2023/01/27 04:27:12;;;;;;;15.30;9.03;;;4.90;99.90;;;;;;4992045;28;20572;-69
2023/01/27 04:29:40;;;;;;;13.73;8.63;;;4.90;99.90;;;;;;4975662;28;20290;-68
2023/01/27 04:32:09;;;;;;;18.17;9.90;;;4.90;99.90;;;;;;4995004;28;20242;-69
2023/01/27 04:34:37;;;;;;;14.73;8.43;;;5.00;99.90;;;;;;4988172;28;20218;-67
2023/01/27 04:37:05;;;;;;;16.27;8.30;;;5.00;99.90;;;;;;4983047;28;20294;-69
2023/01/27 04:39:33;;;;;;;13.57;8.23;;;5.00;99.90;;;;;;4993852;28;20246;-69
2023/01/27 04:42:00;;;;;;;14.63;9.27;;;5.00;99.90;;;;;;4997974;28;20704;-70
2023/01/27 04:44:26;;;;;;;13.30;8.27;;;5.00;99.90;;;;;;4997607;28;20239;-67
2023/01/27 04:46:55;;;;;;;14.50;8.77;;;5.00;99.90;;;;;;4990985;28;20232;-69
2023/01/27 04:49:22;;;;;;;13.37;7.80;;;5.00;99.90;;;;;;5001246;28;20651;-67
2023/01/27 04:51:49;;;;;;;12.90;7.70;;;5.00;99.90;;;;;;4988763;28;20229;-69
2023/01/27 04:54:16;;;;;;;9.37;6.97;;;5.00;99.90;;;;;;4992842;28;20285;-67
2023/01/27 04:56:57;;;;;;;11.70;7.27;;;5.00;99.90;;;;;;4972704;28;20215;-67
2023/01/27 04:59:24;;;;;;;11.90;7.07;;;5.00;99.90;;;;;;4993613;28;20581;-69
2023/01/27 05:01:51;;;;;;;12.77;7.30;;;5.00;99.90;;;;;;4992045;28;20324;-68
2023/01/27 05:04:18;;;;;;;10.40;6.43;;;5.00;99.90;;;;;;4992555;28;20207;-67
2023/01/27 05:06:45;;;;;;;8.83;6.10;;;5.00;99.90;;;;;;4989020;28;20940;-67
2023/01/27 05:09:12;;;;;;;8.43;6.13;;;5.00;99.90;;;;;;4991512;28;20243;-70
2023/01/27 05:11:38;;;;;;;10.97;7.00;;;5.00;99.90;;;;;;4993540;28;20232;-70
2023/01/27 05:14:05;;;;;;;9.93;6.47;;;5.00;99.90;;;;;;4992617;28;20241;-69
2023/01/27 05:16:32;;;;;;;8.83;6.17;;;5.00;99.90;;;;;;4990373;28;20203;-69
2023/01/27 05:18:59;;;;;;;10.70;7.00;;;5.00;99.90;;;;;;4993119;28;20242;-69
2023/01/27 05:21:29;;;;;;;10.10;6.27;;;5.00;99.90;;;;;;4993234;28;20286;-69
2023/01/27 05:23:56;;;;;;;11.73;6.40;;;5.00;99.90;;;;;;4974344;28;20254;-69
2023/01/27 05:26:25;;;;;;;11.23;6.53;;;5.00;99.90;;;;;;4992963;28;20617;-70
2023/01/27 05:28:54;;;;;;;13.00;7.10;;;5.00;99.90;;;;;;4988295;28;20295;-70
2023/01/27 05:31:24;;;;;;;10.00;7.40;;;5.00;99.90;;;;;;4983639;28;20752;-69
2023/01/27 05:33:53;;;;;;;11.30;6.57;;;5.00;99.90;;;;;;4990159;28;20207;-70
2023/01/27 05:36:23;;;;;;;9.57;6.30;;;5.00;99.90;;;;;;4990425;28;20701;-68
2023/01/27 05:38:50;;;;;;;8.90;6.43;;;5.00;99.90;;;;;;4992085;28;20240;-67
2023/01/27 05:41:18;;;;;;;10.03;6.47;;;5.00;99.90;;;;;;4989067;28;20201;-69
2023/01/27 05:43:49;;;;;;;12.90;6.37;;;5.00;99.90;;;;;;4974654;28;20289;-69
2023/01/27 05:46:18;;;;;;;9.03;6.40;;;4.90;99.90;;;;;;4986962;28;20206;-69
2023/01/27 05:48:48;;;;;;;9.43;6.10;;;5.00;99.90;;;;;;4989083;28;20210;-67
2023/01/27 05:51:18;;;;;;;11.33;6.37;;;4.90;99.90;;;;;;4990212;28;20242;-67
2023/01/27 05:53:46;;;;;;;7.77;6.47;;;4.90;99.90;;;;;;4975010;28;20218;-70
2023/01/27 05:56:17;;;;;;;9.23;6.40;;;4.80;99.90;;;;;;4973818;28;20314;-68
2023/01/27 05:58:44;;;;;;;7.83;6.10;;;4.80;99.90;;;;;;4990436;28;20300;-68
2023/01/27 06:01:18;;;;;;;9.53;5.83;;;4.80;99.90;;;;;;4989822;28;20344;-68
2023/01/27 06:03:46;;;;;;;8.67;5.83;;;4.70;99.90;;;;;;4990187;28;20242;-68
2023/01/27 06:06:14;;;;;;;10.77;6.47;;;4.70;99.90;;;;;;4986641;28;20215;-68
2023/01/27 06:08:41;;;;;;;9.13;6.00;;;4.70;99.90;;;;;;4994041;28;20217;-68
2023/01/27 06:11:09;;;;;;;8.87;5.83;;;4.70;99.90;;;;;;4986965;28;20301;-68
2023/01/27 06:13:37;;;;;;;11.07;6.20;;;4.80;99.90;;;;;;4970419;28;20712;-68
2023/01/27 06:16:07;;;;;;;8.90;6.17;;;4.80;99.90;;;;;;4988356;28;20243;-68
2023/01/27 06:18:34;;;;;;;6.27;5.23;;;4.70;99.90;;;;;;4988914;28;20582;-68
2023/01/27 06:21:03;;;;;;;9.60;5.53;;;4.80;99.90;;;;;;4987579;28;20234;-68
2023/01/27 06:23:30;;;;;;;6.70;5.43;;;4.80;99.90;;;;;;4987711;28;20216;-69
2023/01/27 06:26:02;;;;;;;8.17;5.10;;;4.80;99.90;;;;;;4970984;28;20209;-68
2023/01/27 06:28:28;;;;;;;8.67;5.23;;;4.70;99.90;;;;;;4985657;28;20663;-68
2023/01/27 06:31:03;;;;;;;7.17;5.20;;;4.70;99.90;;;;;;4986015;28;20199;-68
2023/01/27 06:33:30;;;;;;;7.00;5.03;;;4.70;99.90;;;;;;4989248;28;20235;-68
2023/01/27 06:36:04;;;;;;;5.47;4.53;;;4.80;99.90;;;;;;4986169;28;20939;-68
2023/01/27 06:38:31;;;;;;;8.53;5.23;;;4.80;99.90;;;;;;4984586;28;20199;-68
2023/01/27 06:40:59;;;;;;;7.03;5.30;;;4.80;99.90;;;;;;4986738;28;20207;-68
2023/01/27 06:43:26;;;;;;;7.97;6.07;;;4.80;99.90;;;;;;4987950;28;20212;-68
2023/01/27 06:45:53;;;;;;;6.83;5.43;;;4.70;99.90;;;;;;4985989;28;20668;-68
2023/01/27 06:48:23;;;;;;;5.67;5.03;;;4.80;99.90;;;;;;4981060;28;20681;-68
2023/01/27 06:50:49;;;;;;;7.67;5.70;;;4.80;99.90;;;;;;4988904;28;20215;-68
2023/01/27 06:53:16;;;;;;;7.83;5.53;;;4.70;99.90;;;;;;4981507;28;20239;-69
2023/01/27 06:55:43;;;;;;;8.23;5.07;;;4.70;99.90;;;;;;4988374;28;20211;-68
2023/01/27 06:58:11;;;;;;;5.93;4.60;;;4.70;99.90;;;;;;4989231;28;20242;-68
2023/01/27 07:00:39;;;;;;;7.00;4.50;;;4.60;99.90;;;;;;4986635;28;20318;-68
2023/01/27 07:03:09;;;;;;;6.50;4.63;;;4.60;99.90;;;;;;4988659;28;20337;-69
2023/01/27 07:05:38;;;;;;;5.20;4.67;;;4.50;99.90;;;;;;4982416;28;20207;-69
2023/01/27 07:08:05;;;;;;;5.30;4.63;;;4.40;99.90;;;;;;4985530;28;20208;-69
2023/01/27 07:10:32;;;;;;;5.70;4.47;;;4.30;99.90;;;;;;4985521;28;20218;-69
2023/01/27 07:13:10;;;;;;;6.23;4.87;;;4.20;99.90;;;;;;4985082;28;20320;-69
2023/01/27 07:15:38;;;;;;;6.37;4.77;;;4.20;99.90;;;;;;4986676;28;20236;-69
2023/01/27 07:18:05;;;;;;;5.07;4.23;;;4.10;99.90;;;;;;4984376;28;20251;-69
2023/01/27 07:20:32;;;;;;;5.30;4.20;;;4.00;99.90;;;;;;4989085;28;20203;-69
2023/01/27 07:23:00;;;;;;;6.23;4.73;;;4.00;99.90;;;;;;4982325;28;20242;-68
2023/01/27 07:25:29;;;;;;;6.47;4.40;;;3.90;99.90;;;;;;4969608;28;20215;-70
2023/01/27 07:27:57;;;;;;;6.70;4.23;;;3.90;99.90;;;;;;4984274;28;20203;-68
2023/01/27 07:30:25;;;;;;;6.13;4.30;;;3.90;99.90;;;;;;4987486;28;20269;-69
2023/01/27 07:32:53;;;;;;;5.63;4.40;;;3.80;99.90;;;;;;4982443;28;20309;-68
2023/01/27 07:35:21;;;;;;;6.73;4.23;;;3.70;99.90;;;;;;4986374;28;20217;-69
2023/01/27 07:37:48;;;;;;;5.37;4.13;;;3.70;99.90;;;;;;4989382;28;20233;-69
2023/01/27 07:40:15;;;;;;;7.13;4.60;;;3.70;99.90;;;;;;4983911;28;20302;-69
2023/01/27 07:42:42;;;;;;;7.50;4.00;;;3.70;99.90;;;;;;4987035;28;20199;-69
2023/01/27 07:45:09;;;;;;;6.57;3.90;;;3.70;99.90;;;;;;4985804;28;20301;-69
2023/01/27 07:47:36;;;;;;;5.50;4.10;;;3.60;99.90;;;;;;4983187;28;20614;-69
2023/01/27 07:50:03;;;;;;;7.97;4.40;;;3.60;99.90;;;;;;4968405;28;20314;-69
2023/01/27 07:52:30;;;;;;;6.07;4.67;;;3.50;99.90;;;;;;4982818;28;20265;-69
2023/01/27 07:54:57;;;;;;;7.00;4.57;;;3.50;99.90;;;;;;4983127;28;20262;-69
2023/01/27 07:57:23;;;;;;;8.33;4.77;;;3.50;99.90;;;;;;4985514;28;20211;-69
2023/01/27 07:59:54;;;;;;;4.80;4.03;;;3.40;99.90;;;;;;4985602;28;20307;-69
2023/01/27 08:02:25;;;;;;;7.90;3.90;;;3.40;99.90;;;;;;4982845;28;20671;-69
2023/01/27 08:04:51;;;;;;;7.27;4.50;;;3.40;99.90;;;;;;4981010;28;20240;-69
2023/01/27 08:07:19;;;;;;;9.60;4.50;;;3.40;99.90;;;;;;4986159;28;20248;-69
2023/01/27 08:09:46;;;;;;;8.57;4.13;;;3.40;99.90;;;;;;4982957;28;20622;-69
2023/01/27 08:12:13;;;;;;;9.00;5.23;;;3.40;99.90;;;;;;4987289;28;20272;-70
2023/01/27 08:14:40;;;;;;;6.00;4.77;;;3.40;99.90;;;;;;4973975;28;20296;-69
2023/01/27 08:17:06;;;;;;;7.87;4.70;;;3.40;99.90;;;;;;4989573;28;20322;-69
2023/01/27 08:19:33;;;;;;;7.77;4.50;;;3.30;99.90;;;;;;4988191;28;20292;-69
2023/01/27 08:22:00;;;;;;;5.63;4.53;;;3.40;99.90;;;;;;4987554;28;20281;-69
2023/01/27 08:24:26;;;;;;;8.53;4.73;;;3.40;99.90;;;;;;4989555;28;20204;-68
2023/01/27 08:26:53;;;;;;;6.80;4.43;;;3.40;99.90;;;;;;4988508;28;20621;-67
2023/01/27 08:29:20;;;;;;;6.73;4.70;;;3.40;99.90;;;;;;4989828;28;20278;-70
2023/01/27 08:31:47;;;;;;;6.20;4.80;;;3.50;99.90;;;;;;4987428;28;20223;-68
2023/01/27 08:34:15;;;;;;;5.90;4.33;;;3.60;99.90;;;;;;4989338;28;20689;-68
2023/01/27 08:36:42;;;;;;;7.83;4.37;;;3.70;99.90;;;;;;4991923;28;20310;-69
2023/01/27 08:39:09;;;;;;;9.83;4.27;;;3.80;99.90;;;;;;4966822;28;20591;-69
2023/01/27 08:41:37;;;;;;;6.83;4.33;;;3.80;99.90;;;;;;4989312;28;20204;-68
2023/01/27 08:44:04;;;;;;;6.50;4.63;;;3.90;99.90;;;;;;4990046;28;20686;-69
2023/01/27 08:46:30;;;;;;;9.77;4.93;;;3.90;99.90;;;;;;4987075;28;20200;-68
2023/01/27 08:48:57;;;;;;;8.43;4.43;;;4.00;99.90;;;;;;4985901;28;20216;-68
2023/01/27 08:51:24;;;;;;;7.60;4.67;;;4.00;99.90;;;;;;4988390;28;20293;-69
2023/01/27 08:53:51;;;;;;;9.90;5.20;;;4.10;99.90;;;;;;4987023;28;20223;-70
2023/01/27 08:56:17;;;;;;;8.47;5.00;;;4.20;99.90;;;;;;4986571;28;20211;-69
2023/01/27 08:58:47;;;;;;;9.70;4.90;;;4.20;99.90;;;;;;4988727;28;20210;-70
2023/01/27 09:01:14;;;;;;;6.27;4.60;;;4.30;99.90;;;;;;4982228;28;20296;-68
2023/01/27 09:03:41;;;;;;;6.70;4.53;;;4.30;99.90;;;;;;4970395;28;20224;-69
2023/01/27 09:06:09;;;;;;;7.90;5.30;;;4.40;99.90;;;;;;4985286;28;20208;-69
2023/01/27 09:08:36;;;;;;;7.33;5.10;;;4.40;99.90;;;;;;4989603;28;20230;-69
2023/01/27 09:11:15;;;;;;;7.47;5.13;;;4.30;99.90;;;;;;4987366;28;20301;-69
2023/01/27 09:13:42;;;;;;;8.23;5.13;;;4.40;99.90;;;;;;4985612;28;20665;-68
2023/01/27 09:16:09;;;;;;;6.90;5.27;;;4.50;99.90;;;;;;4986707;28;20655;-68
2023/01/27 09:18:36;;;;;;;6.43;5.20;;;4.50;99.90;;;;;;4985893;28;20222;-70
2023/01/27 09:21:06;;;;;;;8.13;4.97;;;4.50;99.90;;;;;;4989357;28;20262;-68
2023/01/27 09:23:33;;;;;;;9.00;5.70;;;4.50;99.90;;;;;;4994052;28;20298;-69
2023/01/27 09:26:00;;;;;;;9.03;5.83;;;4.60;99.90;;;;;;4987561;28;20215;-69
2023/01/27 09:28:27;;;;;;;8.87;5.83;;;4.60;99.90;;;;;;4989282;28;20219;-70
2023/01/27 09:30:58;;;;;;;6.57;4.57;;;4.60;99.90;;;;;;4990010;28;20296;-70
2023/01/27 09:33:26;;;;;;;8.00;5.07;;;4.60;99.90;;;;;;4975471;28;20235;-68
2023/01/27 09:35:58;;;;;;;14.90;7.83;;;4.70;99.90;;;;;;4986815;28;20824;-68
2023/01/27 09:38:27;;;;;;;9.83;6.60;;;4.70;99.90;;;;;;4986422;28;20624;-69
2023/01/27 09:41:16;;;;;;;6.93;4.90;;;4.70;99.90;;;;;;4984064;28;20547;-68
2023/01/27 09:43:55;;;;;;;11.27;5.90;;;4.70;99.90;;;;;;4988687;28;20207;-69
2023/01/27 09:46:56;;;;;;;7.67;5.13;;;4.70;99.90;;;;;;4982124;28;20207;-70
2023/01/27 09:49:43;;;;;;;8.33;5.10;;;4.70;99.90;;;;;;4942132;28;20262;-68
2023/01/27 09:52:31;;;;;;;9.70;6.10;;;4.80;99.90;;;;;;4983594;28;20520;-69
2023/01/27 09:55:32;;;;;;;8.40;5.50;;;4.80;99.90;;;;;;4986992;28;20199;-68
2023/01/27 09:58:06;;;;;;;10.13;5.87;;;4.80;99.90;;;;;;4981749;28;20211;-67
2023/01/27 10:01:17;;;;;;;6.23;4.87;;;4.90;99.90;;;;;;4985439;28;20239;-69
2023/01/27 10:04:03;;;;;;;7.47;5.43;;;4.90;99.90;;;;;;4958625;28;20227;-69
2023/01/27 10:06:48;;;;;;;9.57;5.60;;;4.90;99.90;;;;;;4983542;28;20685;-69
2023/01/27 10:09:21;;;;;;;7.80;5.50;;;5.00;99.90;;;;;;4984189;28;20356;-70
2023/01/27 10:12:07;;;;;;;10.70;5.93;;;5.00;99.90;;;;;;4983640;28;20236;-68
2023/01/27 10:15:01;;;;;;;7.97;5.37;;;5.00;99.90;;;;;;4983548;28;20235;-69
2023/01/27 10:17:47;;;;;;;8.40;5.53;;;5.00;99.90;;;;;;4983537;28;20347;-69
2023/01/27 10:20:27;;;;;;;8.80;5.80;;;5.00;99.90;;;;;;4985355;28;20215;-68
2023/01/27 10:23:28;;;;;;;7.77;5.40;;;5.10;99.90;;;;;;4984209;28;20236;-69
2023/01/27 10:26:25;;;;;;;8.87;5.10;;;5.10;99.90;;;;;;4982415;28;20203;-70
2023/01/27 10:29:03;;;;;;;7.87;5.47;;;5.10;99.90;;;;;;4983598;28;20212;-68
2023/01/27 10:31:36;;;;;;;7.93;5.43;;;5.10;99.90;;;;;;4984850;28;20246;-69
2023/01/27 10:34:17;;;;;;;8.70;5.83;;;5.10;99.90;;;;;;4983720;28;20233;-69
2023/01/27 10:37:08;;;;;;;7.87;5.50;;;5.10;99.90;;;;;;4989058;28;20207;-68
2023/01/27 10:39:45;;;;;;;8.80;6.07;;;5.20;99.90;;;;;;4985793;28;20233;-68
2023/01/27 10:42:15;;;;;;;9.80;5.90;;;5.10;99.90;;;;;;4988648;28;20192;-68
2023/01/27 10:45:00;;;;;;;12.70;6.20;;;5.10;99.90;;;;;;4990555;28;20221;-69
2023/01/27 10:47:29;;;;;;;9.27;5.87;;;5.20;99.90;;;;;;4983143;28;20219;-68
2023/01/27 10:50:04;;;;;;;9.60;6.00;;;5.20;99.90;;;;;;4989555;28;20262;-68
2023/01/27 10:52:46;;;;;;;9.43;7.00;;;5.20;99.90;;;;;;4988284;28;20214;-70
2023/01/27 10:55:26;;;;;;;8.33;5.73;;;5.20;99.90;;;;;;4990146;28;20246;-69
2023/01/27 10:58:02;;;;;;;8.20;5.80;;;5.30;99.90;;;;;;4989003;28;20216;-69
2023/01/27 11:00:46;;;;;;;10.10;5.53;;;5.30;99.90;;;;;;4970051;28;20323;-69
2023/01/27 11:03:50;;;;;;;9.20;6.03;;;5.30;99.90;;;;;;4985599;28;20212;-70
2023/01/27 11:06:23;;;;;;;8.90;6.37;;;5.40;99.90;;;;;;4979401;28;20548;-68
2023/01/27 11:08:57;;;;;;;8.53;6.33;;;5.40;99.90;;;;;;4980745;28;20214;-68
2023/01/27 11:11:43;;;;;;;7.63;5.07;;;5.60;99.90;;;;;;4981318;28;20211;-68
2023/01/27 11:14:21;;;;;;;9.27;5.70;;;5.60;99.90;;;;;;4990195;28;20254;-70
2023/01/27 11:16:51;;;;;;;8.27;5.40;;;5.80;99.90;;;;;;4983917;28;20260;-69
2023/01/27 11:19:35;;;;;;;9.43;5.47;;;5.90;99.90;;;;;;4984083;28;20209;-68
2023/01/27 11:22:03;;;;;;;7.77;5.37;;;6.10;99.90;;;;;;4986895;28;20209;-69
2023/01/27 11:24:46;;;;;;;7.70;5.10;;;6.20;99.90;;;;;;4983268;28;20206;-68
2023/01/27 11:27:24;;;;;;;10.07;5.00;;;6.40;99.90;;;;;;4971211;28;20203;-67
2023/01/27 11:29:56;;;;;;;6.53;4.80;;;6.50;99.90;;;;;;4985008;28;20298;-70
2023/01/27 11:32:33;;;;;;;6.83;4.70;;;6.50;99.90;;;;;;4986313;28;20223;-69
2023/01/27 11:35:04;;;;;;;6.33;4.73;;;6.60;99.90;;;;;;4986103;28;20233;-69
2023/01/27 11:37:42;;;;;;;6.83;5.03;;;6.60;99.90;;;;;;4989049;28;20211;-69
2023/01/27 11:40:20;;;;;;;6.67;4.73;;;6.70;99.90;;;;;;4983419;28;20285;-68
2023/01/27 11:42:47;;;;;;;8.37;5.70;;;6.80;99.90;;;;;;4983256;28;20205;-69
2023/01/27 11:45:19;;;;;;;7.80;5.43;;;6.80;99.90;;;;;;4979566;28;20580;-71
2023/01/27 11:47:51;;;;;;;7.73;5.07;;;6.80;99.90;;;;;;4973701;28;20234;-70
2023/01/27 11:50:20;;;;;;;7.73;4.97;;;6.80;99.90;;;;;;4988608;28;20213;-70
2023/01/27 11:53:27;;;;;;;6.23;4.70;;;6.80;99.90;;;;;;4990942;28;20231;-69
2023/01/27 11:56:02;;;;;;;7.53;4.77;;;6.70;99.90;;;;;;4962035;28;20473;-70
2023/01/27 11:58:31;;;;;;;6.87;4.73;;;6.70;99.90;;;;;;4990665;28;20199;-70
2023/01/27 12:01:02;;;;;;;5.90;4.97;;;6.60;99.90;;;;;;4984539;28;20247;-69
2023/01/27 12:03:55;;;;;;;8.10;4.90;;;6.50;99.90;;;;;;4974081;28;20309;-69
2023/01/27 12:06:37;;;;;;;7.20;4.97;;;6.50;99.90;;;;;;4988688;28;20211;-69
2023/01/27 12:09:04;;;;;;;6.97;4.80;;;6.50;99.90;;;;;;4982347;28;20213;-69
2023/01/27 12:11:31;;;;;;;7.33;4.93;;;6.50;99.90;;;;;;4991860;28;20271;-69
2023/01/27 12:14:03;;;;;;;5.90;4.27;;;6.50;99.90;;;;;;4991512;28;20227;-69
2023/01/27 12:16:39;;;;;;;6.83;4.37;;;6.60;99.90;;;;;;4988201;28;20663;-70
2023/01/27 12:19:27;;;;;;;5.93;4.60;;;6.60;99.90;;;;;;4985247;28;20211;-69
2023/01/27 12:22:27;;;;;;;6.87;4.73;;;6.60;99.90;;;;;;4985724;28;20231;-70
2023/01/27 12:25:01;;;;;;;7.00;4.53;;;6.60;99.90;;;;;;4986838;28;20217;-71
2023/01/27 12:27:30;;;;;;;6.63;4.50;;;6.60;99.90;;;;;;4986855;28;20587;-69
2023/01/27 12:30:01;;;;;;;6.03;4.50;;;6.60;99.90;;;;;;4985382;28;20210;-69
2023/01/27 12:32:42;;;;;;;6.23;4.73;;;6.60;99.90;;;;;;4988454;28;20664;-68
2023/01/27 12:35:32;;;;;;;7.43;5.13;;;6.60;99.90;;;;;;4990904;28;20314;-69
2023/01/27 12:38:20;;;;;;;9.07;4.77;;;6.60;99.90;;;;;;4978891;28;20441;-69
2023/01/27 12:40:54;;;;;;;5.33;4.40;;;6.50;99.90;;;;;;4992254;28;20222;-70
2023/01/27 12:43:20;;;;;;;6.47;4.47;;;6.50;99.90;;;;;;4996274;28;20244;-69
2023/01/27 12:46:02;;;;;;;5.90;4.53;;;6.40;99.90;;;;;;4996162;28;20213;-69
2023/01/27 12:48:30;;;;;;;5.30;4.23;;;6.40;99.90;;;;;;4991775;28;21501;-68
2023/01/27 12:51:05;;;;;;;6.43;4.40;;;6.40;99.90;;;;;;4987325;28;20237;-68
2023/01/27 12:53:32;;;;;;;6.23;4.50;;;6.40;99.90;;;;;;4973578;28;20230;-68
2023/01/27 12:56:14;;;;;;;6.63;4.60;;;6.40;99.90;;;;;;4970721;28;20317;-70
2023/01/27 12:58:53;;;;;;;5.73;4.10;;;6.30;99.90;;;;;;4988473;28;20205;-68
2023/01/27 13:01:27;;;;;;;5.77;4.10;;;6.30;99.90;;;;;;4984562;28;20634;-68
2023/01/27 13:04:11;;;;;;;5.67;4.27;;;6.30;99.90;;;;;;4990668;28;20227;-68
2023/01/27 13:06:43;;;;;;;5.57;4.30;;;6.30;99.90;;;;;;4988359;28;20209;-68
2023/01/27 13:09:33;;;;;;;6.20;4.57;;;6.30;99.90;;;;;;4974431;28;20210;-71
2023/01/27 13:12:28;;;;;;;4.77;4.13;;;6.20;99.90;;;;;;4988757;28;20237;-69
2023/01/27 13:14:57;;;;;;;8.33;5.00;;;6.20;99.90;;;;;;4988094;28;20228;-71
2023/01/27 13:17:28;;;;;;;7.87;4.73;;;6.20;99.90;;;;;;4989034;28;20224;-68
2023/01/27 13:20:01;;;;;;;6.00;4.27;;;6.10;99.90;;;;;;4989489;28;20308;-68
2023/01/27 13:22:32;;;;;;;8.13;4.87;;;6.10;99.90;;;;;;4985111;28;20202;-68
2023/01/27 13:25:02;;;;;;;6.17;4.47;;;6.10;99.90;;;;;;4991316;28;20206;-69
2023/01/27 13:27:36;;;;;;;7.77;4.70;;;6.00;99.90;;;;;;4989382;28;20289;-68
2023/01/27 13:30:11;;;;;;;5.83;4.80;;;6.00;99.90;;;;;;4990939;28;20277;-69
2023/01/27 13:32:42;;;;;;;7.57;4.87;;;6.00;99.90;;;;;;4988478;28;21027;-69
2023/01/27 13:35:24;;;;;;;6.57;5.07;;;6.00;99.90;;;;;;4989041;28;20242;-69
2023/01/27 13:38:16;;;;;;;10.50;5.17;;;6.00;99.90;;;;;;4991221;28;20610;-70
2023/01/27 13:40:44;;;;;;;6.53;5.13;;;6.00;99.90;;;;;;4985591;28;20197;-69